This is the latest recevied weather packets stored in our database for station/object KJ4EWA. If no packets are shown the sender has not sent any weather packets the latest 10 day(s).
| Time | Temp. | Humidity | Pressure | Rain* | Wind** | Luminosity | Snow |
|---|---|---|---|---|---|---|---|
| 1777324323 | 28.33° C | 71% | 1019.4 hPa | 0 mm | - | 407 W/m² | - |
| 1777324021 | 27.78° C | 72% | 1019.3 hPa | 0 mm | - | 291 W/m² | - |
| 1777323718 | 28.33° C | 71% | 1019.4 hPa | 0 mm | - | 349 W/m² | - |
| 1777323415 | 28.89° C | 71% | 1019.3 hPa | 0 mm | - | 409 W/m² | - |
| 1777323112 | 27.78° C | 72% | 1019.4 hPa | 0 mm | - | 399 W/m² | - |
| 1777322810 | 28.33° C | 70% | 1019.2 hPa | 0 mm | - | 470 W/m² | - |
| 1777322508 | 29.44° C | 69% | 1019.4 hPa | 0 mm | - | 480 W/m² | - |
| 1777322205 | 28.33° C | 70% | 1019.2 hPa | 0 mm | - | 470 W/m² | - |
| 1777321902 | 28.89° C | 68% | 1019.2 hPa | 0 mm | - | 528 W/m² | - |
| 1777321598 | 28.89° C | 69% | 1019.5 hPa | 0 mm | - | 514 W/m² | - |
| 1777321295 | 28.89° C | 70% | 1019.5 hPa | 0 mm | - | 555 W/m² | - |
| 1777320993 | 29.44° C | 68% | 1019.5 hPa | 0 mm | - | 516 W/m² | - |
| 1777320690 | 28.89° C | 69% | 1019.7 hPa | 0 mm | - | 428 W/m² | - |
| 1777320387 | 28.33° C | 69% | 1019.5 hPa | 0 mm | - | 563 W/m² | - |
| 1777320084 | 28.89° C | 66% | 1019.6 hPa | 0 mm | - | 610 W/m² | - |
| 1777319781 | 29.44° C | 67% | 1019.5 hPa | 0 mm | - | 582 W/m² | - |
| 1777319478 | 28.89° C | 68% | 1019.6 hPa | 0 mm | - | 609 W/m² | - |
| 1777319175 | 29.44° C | 67% | 1019.6 hPa | 0 mm | - | 477 W/m² | - |
| 1777318872 | 29.44° C | 68% | 1019.5 hPa | 0 mm | - | 591 W/m² | - |
| 1777318569 | 29.44° C | 68% | 1019.2 hPa | 0 mm | - | 666 W/m² | - |
| 1777318265 | 28.89° C | 68% | 1019.4 hPa | 0 mm | - | 690 W/m² | - |
| 1777317962 | 28.89° C | 66% | 1019.3 hPa | 0 mm | - | 657 W/m² | - |
| 1777317659 | 29.44° C | 66% | 1019.5 hPa | 0 mm | - | 549 W/m² | - |
| 1777317356 | 28.89° C | 68% | 1019.6 hPa | 0 mm | - | 659 W/m² | - |
| 1777317051 | 28.89° C | 67% | 1019.4 hPa | 0 mm | - | 640 W/m² | - |
* Rain latest hour (hover to see other rain measurements)
** Current wind speed in m/s (hover to see current wind gust speed)